createdAt,value
2023-02-11T00:01:30.420Z,41.93
2023-02-11T00:03:28.861Z,29.90
2023-02-11T00:05:24.407Z,48.13
2023-02-11T00:07:19.757Z,41.10
2023-02-11T00:09:16.629Z,52.80
2023-02-11T00:11:16.519Z,50.57
2023-02-11T00:13:12.160Z,39.10
2023-02-11T00:15:08.222Z,37.13
2023-02-11T00:17:03.900Z,33.60
2023-02-11T00:19:03.021Z,32.10
2023-02-11T00:20:59.537Z,47.30
2023-02-11T00:22:59.077Z,35.30
2023-02-11T00:24:57.130Z,49.73
2023-02-11T00:26:53.020Z,52.07
2023-02-11T00:28:50.167Z,41.97
2023-02-11T00:30:45.498Z,52.80
2023-02-11T00:32:42.723Z,37.50
2023-02-11T00:34:41.066Z,31.37
2023-02-11T00:36:36.708Z,40.50
2023-02-11T00:38:32.141Z,40.53
2023-02-11T00:40:27.707Z,43.97
2023-02-11T00:42:23.076Z,36.00
2023-02-11T00:44:19.631Z,46.03
2023-02-11T00:46:15.850Z,38.87
2023-02-11T00:48:12.056Z,21.80
2023-02-11T00:50:10.234Z,31.13
2023-02-11T00:52:05.383Z,36.03
2023-02-11T00:54:00.788Z,47.00
2023-02-11T00:55:55.817Z,39.03
2023-02-11T00:57:51.188Z,32.53
2023-02-11T00:59:46.162Z,38.90
2023-02-11T01:01:41.497Z,55.57
2023-02-11T01:03:37.157Z,50.03
2023-02-11T01:05:35.515Z,43.63
2023-02-11T01:07:31.485Z,47.03
2023-02-11T01:09:26.738Z,30.83
2023-02-11T01:11:23.791Z,28.17
2023-02-11T01:13:19.376Z,35.90
2023-02-11T01:15:16.495Z,43.87
2023-02-11T01:17:11.511Z,35.73
2023-02-11T01:19:06.786Z,30.77
2023-02-11T01:21:04.354Z,31.87
2023-02-11T01:22:59.349Z,39.50
2023-02-11T01:24:54.614Z,36.57
2023-02-11T01:26:49.545Z,31.17
2023-02-11T01:28:44.941Z,37.00
2023-02-11T01:30:39.989Z,34.87
2023-02-11T01:32:35.073Z,51.17
2023-02-11T01:34:30.359Z,34.27
2023-02-11T01:36:27.892Z,37.33
2023-02-11T01:38:25.125Z,39.23
2023-02-11T01:40:20.870Z,48.10
2023-02-11T01:42:18.861Z,39.67
2023-02-11T01:44:30.812Z,36.63
2023-02-11T01:46:37.060Z,53.67
2023-02-11T01:48:36.109Z,58.90
2023-02-11T01:50:31.445Z,36.77
2023-02-11T01:52:34.297Z,31.77
2023-02-11T01:54:45.198Z,31.20
2023-02-11T01:56:57.505Z,52.60
2023-02-11T01:58:54.585Z,46.67
2023-02-11T02:00:50.345Z,37.43
2023-02-11T02:02:51.869Z,52.07
2023-02-11T02:04:52.355Z,44.33
2023-02-11T02:06:53.736Z,34.60
2023-02-11T02:08:57.932Z,44.53
2023-02-11T02:10:56.616Z,39.40
2023-02-11T02:12:51.938Z,41.50
2023-02-11T02:14:46.860Z,40.93
2023-02-11T02:16:42.342Z,46.93
2023-02-11T02:18:46.144Z,40.77
2023-02-11T02:21:10.968Z,33.73
2023-02-11T02:23:41.273Z,48.47
2023-02-11T02:26:33.064Z,24.70
2023-02-11T02:28:54.626Z,54.97
2023-02-11T02:31:07.560Z,53.37
2023-02-11T02:33:27.133Z,50.20
2023-02-11T02:35:37.701Z,51.63
2023-02-11T02:37:39.385Z,49.73
2023-02-11T02:39:38.489Z,53.23
2023-02-11T02:41:37.263Z,36.53
2023-02-11T02:43:34.037Z,55.53
2023-02-11T02:45:29.501Z,58.73
2023-02-11T02:47:25.178Z,51.63
2023-02-11T02:49:22.669Z,49.53
2023-02-11T02:51:35.672Z,55.23
2023-02-11T02:53:37.962Z,55.83
2023-02-11T02:55:47.240Z,47.40
2023-02-11T02:57:59.288Z,37.10
2023-02-11T03:00:09.970Z,54.07
2023-02-11T03:02:16.517Z,29.63
2023-02-11T03:04:20.178Z,34.20
2023-02-11T03:06:23.174Z,48.00
2023-02-11T03:08:26.977Z,34.93
2023-02-11T03:10:26.645Z,54.57
2023-02-11T03:12:24.243Z,31.40
2023-02-11T03:14:22.020Z,52.13
2023-02-11T03:16:20.571Z,56.13
2023-02-11T03:18:18.627Z,33.90
2023-02-11T03:20:17.300Z,39.90
2023-02-11T03:22:22.850Z,42.90
2023-02-11T03:24:23.365Z,45.97
2023-02-11T03:26:26.060Z,30.10
2023-02-11T03:28:30.603Z,51.60
2023-02-11T03:30:31.287Z,55.93
2023-02-11T03:32:31.495Z,32.23
2023-02-11T03:34:32.388Z,27.37
2023-02-11T03:36:34.903Z,27.50
2023-02-11T03:38:36.928Z,52.83
2023-02-11T03:40:38.049Z,50.43
2023-02-11T03:42:38.414Z,42.80
2023-02-11T03:44:39.336Z,53.17
2023-02-11T03:46:40.112Z,41.73
2023-02-11T03:48:41.578Z,56.23
2023-02-11T03:50:38.890Z,56.00
2023-02-11T03:52:35.475Z,44.37
2023-02-11T03:54:34.329Z,31.20
2023-02-11T03:56:35.408Z,56.77
2023-02-11T03:58:30.436Z,48.27
2023-02-11T04:00:33.135Z,50.70
2023-02-11T04:02:31.705Z,52.30
2023-02-11T04:04:27.204Z,43.03
2023-02-11T04:06:22.345Z,57.47
2023-02-11T04:08:17.660Z,46.70
2023-02-11T04:10:15.593Z,55.37
2023-02-11T04:12:10.858Z,50.07
2023-02-11T04:14:06.209Z,39.17
2023-02-11T04:16:01.293Z,70.07
2023-02-11T04:17:53.948Z,57.87
2023-02-11T04:19:48.853Z,53.30
2023-02-11T04:21:43.764Z,54.30
2023-02-11T04:23:39.114Z,64.87
2023-02-11T04:25:36.616Z,60.07
2023-02-11T04:27:31.941Z,53.47
2023-02-11T04:29:28.208Z,51.17
2023-02-11T04:31:23.578Z,55.83
2023-02-11T04:33:18.601Z,39.33
2023-02-11T04:35:13.902Z,48.40
2023-02-11T04:37:09.254Z,51.03
2023-02-11T04:39:04.339Z,50.20
2023-02-11T04:41:03.274Z,50.77
2023-02-11T04:42:58.182Z,58.23
2023-02-11T04:44:53.542Z,63.03
2023-02-11T04:46:48.496Z,51.90
2023-02-11T04:48:44.099Z,46.20
2023-02-11T04:50:39.341Z,48.33
2023-02-11T04:52:34.901Z,36.57
2023-02-11T04:54:29.949Z,48.10
2023-02-11T04:56:27.819Z,56.07
2023-02-11T04:58:23.088Z,57.20
2023-02-11T05:00:19.469Z,63.47
2023-02-11T05:02:14.395Z,55.70
2023-02-11T05:04:09.704Z,65.40
2023-02-11T05:06:05.520Z,54.00
2023-02-11T05:08:00.781Z,68.20
2023-02-11T05:09:55.706Z,69.13
2023-02-11T05:11:53.689Z,60.43
2023-02-11T05:13:49.664Z,64.53
2023-02-11T05:15:44.929Z,65.30
2023-02-11T05:17:40.034Z,65.93
2023-02-11T05:19:35.551Z,55.43
2023-02-11T05:21:30.487Z,58.93
2023-02-11T05:23:25.390Z,52.37
2023-02-11T05:25:20.894Z,58.07
2023-02-11T05:27:18.486Z,63.63
2023-02-11T05:29:13.868Z,47.60
2023-02-11T05:31:09.351Z,49.30
2023-02-11T05:33:04.332Z,46.03
2023-02-11T05:34:59.557Z,48.67
2023-02-11T05:36:54.608Z,35.53
2023-02-11T05:38:50.947Z,46.27
2023-02-11T05:40:46.287Z,31.97
2023-02-11T05:42:44.275Z,74.77
2023-02-11T05:44:39.536Z,62.60
2023-02-11T05:46:34.880Z,41.73
2023-02-11T05:48:29.997Z,49.33
2023-02-11T05:50:25.923Z,52.90
2023-02-11T05:52:20.906Z,55.30
2023-02-11T05:54:16.340Z,71.90
2023-02-11T05:56:11.638Z,75.33
2023-02-11T05:58:10.638Z,52.23
2023-02-11T06:00:06.264Z,61.60
2023-02-11T06:02:02.065Z,39.50
2023-02-11T06:03:57.104Z,39.27
2023-02-11T06:05:52.616Z,76.13
2023-02-11T06:07:47.888Z,61.63
2023-02-11T06:09:43.404Z,66.17
2023-02-11T06:11:38.306Z,72.23
2023-02-11T06:13:36.218Z,78.20
2023-02-11T06:15:31.229Z,80.73
2023-02-11T06:17:26.637Z,56.40
2023-02-11T06:19:21.649Z,52.07
2023-02-11T06:21:16.988Z,58.27
2023-02-11T06:23:11.966Z,70.37
2023-02-11T06:25:07.955Z,53.23
2023-02-11T06:27:03.035Z,72.03
2023-02-11T06:29:02.523Z,70.73
2023-02-11T06:30:57.779Z,73.07
2023-02-11T06:32:52.850Z,73.90
2023-02-11T06:34:48.283Z,81.37
2023-02-11T06:36:44.036Z,64.27
2023-02-11T06:38:39.352Z,78.50
2023-02-11T06:40:34.244Z,88.20
2023-02-11T06:42:29.596Z,94.30
2023-02-11T06:44:27.373Z,81.73
2023-02-11T06:46:22.338Z,70.13
2023-02-11T06:48:17.569Z,49.23
2023-02-11T06:50:16.694Z,49.73
2023-02-11T06:52:11.953Z,63.57
2023-02-11T06:54:08.663Z,48.57
2023-02-11T06:56:06.115Z,54.53
2023-02-11T06:58:01.389Z,69.47
2023-02-11T06:59:59.567Z,62.13
2023-02-11T07:01:55.159Z,92.90
2023-02-11T07:03:50.809Z,76.07
2023-02-11T07:05:46.131Z,68.03
2023-02-11T07:07:41.399Z,79.03
2023-02-11T07:09:37.333Z,40.63
2023-02-11T07:11:33.047Z,88.40
2023-02-11T07:13:28.700Z,89.90
2023-02-11T07:15:26.477Z,88.83
2023-02-11T07:17:22.065Z,84.50
2023-02-11T07:19:17.267Z,63.77
2023-02-11T07:21:15.121Z,76.53
2023-02-11T07:23:10.530Z,81.83
2023-02-11T07:25:08.305Z,79.93
2023-02-11T07:27:03.647Z,91.17
2023-02-11T07:28:59.280Z,79.70
2023-02-11T07:30:57.421Z,73.70
2023-02-11T07:32:52.706Z,97.23
2023-02-11T07:34:48.675Z,78.53
2023-02-11T07:36:43.737Z,51.53
2023-02-11T07:38:39.737Z,56.80
2023-02-11T07:40:34.708Z,89.27
2023-02-11T07:42:29.627Z,82.33
2023-02-11T07:44:25.342Z,73.13
2023-02-11T07:46:25.296Z,68.90
2023-02-11T07:48:20.599Z,63.03
2023-02-11T07:50:15.492Z,57.37
2023-02-11T07:52:10.753Z,81.80
2023-02-11T07:54:05.717Z,80.40
2023-02-11T07:56:01.050Z,77.37
2023-02-11T07:57:56.029Z,91.47
2023-02-11T07:59:50.923Z,55.63
2023-02-11T08:01:51.425Z,66.13
2023-02-11T08:03:46.645Z,88.43
2023-02-11T08:05:42.257Z,93.63
2023-02-11T08:07:37.558Z,92.80
2023-02-11T08:09:34.497Z,59.53
2023-02-11T08:11:31.224Z,71.10
2023-02-11T08:13:26.992Z,45.50
2023-02-11T08:15:21.950Z,68.83
2023-02-11T08:17:19.846Z,84.83
2023-02-11T08:19:16.630Z,56.27
2023-02-11T08:21:15.762Z,73.73
2023-02-11T08:23:11.028Z,67.57
2023-02-11T08:25:06.075Z,78.23
2023-02-11T08:27:01.305Z,82.50
2023-02-11T08:28:58.760Z,69.40
2023-02-11T08:30:54.056Z,70.73
2023-02-11T08:32:51.719Z,55.17
2023-02-11T08:34:48.659Z,85.67
2023-02-11T08:36:45.274Z,75.17
2023-02-11T08:38:40.969Z,74.97
2023-02-11T08:40:36.110Z,56.23
2023-02-11T08:42:31.078Z,67.83
2023-02-11T08:44:27.156Z,75.93
2023-02-11T08:46:22.893Z,61.97
2023-02-11T08:48:20.808Z,57.97
2023-02-11T08:50:15.801Z,60.97
2023-02-11T08:52:11.543Z,72.50
2023-02-11T08:54:10.155Z,40.20
2023-02-11T08:56:06.189Z,69.07
2023-02-11T08:58:01.135Z,66.47
2023-02-11T08:59:56.453Z,50.33
2023-02-11T09:01:51.842Z,65.20
2023-02-11T09:03:49.948Z,61.07
2023-02-11T09:05:45.707Z,43.03
2023-02-11T09:07:40.944Z,85.57
2023-02-11T09:09:36.442Z,77.73
2023-02-11T09:11:35.992Z,41.17
2023-02-11T09:13:32.890Z,83.87
2023-02-11T09:15:27.882Z,84.40
2023-02-11T09:17:23.175Z,53.97
2023-02-11T09:19:21.516Z,67.13
2023-02-11T09:21:18.924Z,57.37
2023-02-11T09:23:15.549Z,45.43
2023-02-11T09:25:12.513Z,70.20
2023-02-11T09:27:08.640Z,65.27
2023-02-11T09:29:04.382Z,58.07
2023-02-11T09:30:59.837Z,57.40
2023-02-11T09:32:55.208Z,75.27
2023-02-11T09:34:53.453Z,62.63
2023-02-11T09:36:48.433Z,77.33
2023-02-11T09:38:44.032Z,47.23
2023-02-11T09:40:42.535Z,77.47
2023-02-11T09:42:46.584Z,42.30
2023-02-11T09:44:47.010Z,67.90
2023-02-11T09:46:45.745Z,57.87
2023-02-11T09:48:44.582Z,68.90
2023-02-11T09:50:46.234Z,51.10
2023-02-11T09:52:47.300Z,72.40
2023-02-11T09:54:55.508Z,42.83
2023-02-11T09:56:50.481Z,42.77
2023-02-11T09:58:47.522Z,68.77
2023-02-11T10:00:48.120Z,47.63
2023-02-11T10:03:09.207Z,69.23
2023-02-11T10:05:22.141Z,72.87
2023-02-11T10:07:27.956Z,62.27
2023-02-11T10:09:39.774Z,78.40
2023-02-11T10:11:44.549Z,71.27
2023-02-11T10:13:50.366Z,57.83
2023-02-11T10:15:53.490Z,58.37
2023-02-11T10:18:10.034Z,76.00
2023-02-11T10:20:23.651Z,52.90
2023-02-11T10:22:25.905Z,60.80
2023-02-11T10:24:22.159Z,72.10
2023-02-11T10:26:20.190Z,79.37
2023-02-11T10:28:18.753Z,54.50
2023-02-11T10:30:25.158Z,79.67
2023-02-11T10:32:32.222Z,65.00
2023-02-11T10:34:27.794Z,55.57
2023-02-11T10:36:32.600Z,61.00
2023-02-11T10:38:30.816Z,76.07
2023-02-11T10:40:28.134Z,79.90
2023-02-11T10:42:23.829Z,69.17
2023-02-11T10:44:30.270Z,73.77
2023-02-11T10:46:29.503Z,75.97
2023-02-11T10:48:43.867Z,72.07
2023-02-11T10:50:39.709Z,56.17
2023-02-11T10:52:34.863Z,60.90
2023-02-11T10:54:32.758Z,79.60
2023-02-11T10:56:30.836Z,65.20
2023-02-11T10:58:29.253Z,72.03
2023-02-11T11:00:41.572Z,74.03
2023-02-11T11:02:44.107Z,61.87
2023-02-11T11:04:45.749Z,74.90
2023-02-11T11:06:40.784Z,81.97
2023-02-11T11:08:44.564Z,68.10
2023-02-11T11:10:46.965Z,65.50
2023-02-11T11:12:51.170Z,86.90
2023-02-11T11:14:57.200Z,77.83
2023-02-11T11:16:56.280Z,41.40
2023-02-11T11:18:53.417Z,46.23
2023-02-11T11:21:00.092Z,60.60
2023-02-11T11:23:10.749Z,59.47
2023-02-11T11:25:06.181Z,60.23
2023-02-11T11:27:05.461Z,41.83
2023-02-11T11:29:05.194Z,67.40
2023-02-11T11:31:02.182Z,63.43
2023-02-11T11:32:57.920Z,59.07
2023-02-11T11:34:55.679Z,75.07
2023-02-11T11:36:52.334Z,55.87
2023-02-11T11:38:55.136Z,67.50
2023-02-11T11:41:20.911Z,70.10
2023-02-11T11:43:23.862Z,94.07
2023-02-11T11:45:28.716Z,54.20
2023-02-11T11:47:30.979Z,70.43
2023-02-11T11:49:32.629Z,75.27
2023-02-11T11:51:29.034Z,60.57
2023-02-11T11:53:34.369Z,71.40
2023-02-11T11:55:35.947Z,54.73
2023-02-11T11:57:32.210Z,74.10
2023-02-11T11:59:31.284Z,55.57
2023-02-11T12:01:38.855Z,69.30
2023-02-11T12:04:17.349Z,75.43
2023-02-11T12:06:29.369Z,68.13
2023-02-11T12:08:30.623Z,57.67
2023-02-11T12:10:59.821Z,66.87
2023-02-11T12:13:08.564Z,65.10
2023-02-11T12:15:20.664Z,59.63
2023-02-11T12:17:32.589Z,68.97
2023-02-11T12:19:56.376Z,36.50
2023-02-11T12:21:59.175Z,67.50
2023-02-11T12:24:09.178Z,60.13
2023-02-11T12:26:14.153Z,65.30
2023-02-11T12:28:22.158Z,50.60
2023-02-11T12:30:35.423Z,56.17
2023-02-11T12:32:39.309Z,50.77
2023-02-11T12:34:58.457Z,58.17
2023-02-11T12:37:03.173Z,46.53
2023-02-11T12:39:10.325Z,45.13
2023-02-11T12:41:41.945Z,53.37
2023-02-11T12:43:37.303Z,54.70
2023-02-11T12:45:47.528Z,54.10
2023-02-11T12:47:53.831Z,50.00
2023-02-11T12:50:04.729Z,53.90
2023-02-11T12:52:26.293Z,45.70
2023-02-11T12:54:28.356Z,59.93
2023-02-11T12:56:31.130Z,51.97
2023-02-11T12:58:44.546Z,38.77
2023-02-11T13:00:52.148Z,40.80
2023-02-11T13:02:54.517Z,57.27
2023-02-11T13:04:57.341Z,51.37
2023-02-11T13:07:02.355Z,40.77
2023-02-11T13:09:07.219Z,50.00
2023-02-11T13:11:07.952Z,46.60
2023-02-11T13:13:21.564Z,37.90
2023-02-11T13:15:19.378Z,47.03
2023-02-11T13:17:24.421Z,43.63
2023-02-11T13:19:31.812Z,43.00
2023-02-11T13:21:37.329Z,42.57
2023-02-11T13:23:40.493Z,50.90
2023-02-11T13:25:43.603Z,50.47
2023-02-11T13:27:50.595Z,57.93
2023-02-11T13:30:23.242Z,43.60
2023-02-11T13:32:23.817Z,38.17
2023-02-11T13:34:40.957Z,43.30
2023-02-11T13:36:38.267Z,44.90
2023-02-11T13:38:37.357Z,45.67
2023-02-11T13:40:35.159Z,46.57
2023-02-11T13:42:31.291Z,52.60
2023-02-11T13:44:30.978Z,42.13
2023-02-11T13:46:30.680Z,40.57
2023-02-11T13:48:30.916Z,42.83
2023-02-11T13:50:28.246Z,35.73
2023-02-11T13:52:28.630Z,39.60
2023-02-11T13:54:35.609Z,37.67
2023-02-11T13:56:34.113Z,46.07
2023-02-11T13:58:40.017Z,41.03
2023-02-11T14:00:52.100Z,37.53
2023-02-11T14:03:00.015Z,34.77
2023-02-11T14:05:39.888Z,45.67
2023-02-11T14:07:50.729Z,44.27
2023-02-11T14:09:45.732Z,41.53
2023-02-11T14:11:50.998Z,50.20
2023-02-11T14:14:17.840Z,49.10
2023-02-11T14:16:35.336Z,47.90
2023-02-11T14:19:03.537Z,34.80
2023-02-11T14:21:14.862Z,52.20
2023-02-11T14:23:27.300Z,42.30
2023-02-11T14:25:26.718Z,46.87
2023-02-11T14:27:31.210Z,48.83
2023-02-11T14:29:35.391Z,49.93
2023-02-11T14:31:38.993Z,31.60
2023-02-11T14:34:07.444Z,39.97
2023-02-11T14:36:16.516Z,46.40
2023-02-11T14:38:22.977Z,37.80
2023-02-11T14:40:27.324Z,43.13
2023-02-11T14:42:26.953Z,43.40
2023-02-11T14:44:24.964Z,48.47
2023-02-11T14:46:22.585Z,48.20
2023-02-11T14:48:19.754Z,41.97
2023-02-11T14:50:28.793Z,51.80
2023-02-11T14:52:31.483Z,41.40
2023-02-11T14:54:30.325Z,47.13
2023-02-11T14:56:27.999Z,45.20
2023-02-11T14:58:25.698Z,46.27
2023-02-11T15:00:24.801Z,46.27
2023-02-11T15:02:27.521Z,50.80
2023-02-11T15:04:28.005Z,42.43
2023-02-11T15:06:33.283Z,41.20
2023-02-11T15:08:33.191Z,37.53
2023-02-11T15:10:35.819Z,50.27
2023-02-11T15:12:31.715Z,43.20
2023-02-11T15:14:29.853Z,47.00
2023-02-11T15:16:28.204Z,42.87
2023-02-11T15:18:28.303Z,46.27
2023-02-11T15:20:28.668Z,44.40
2023-02-11T15:22:26.441Z,40.03
2023-02-11T15:24:29.612Z,38.47
2023-02-11T15:26:24.957Z,44.07
2023-02-11T15:28:26.659Z,42.83
2023-02-11T15:30:29.191Z,49.53
2023-02-11T15:32:26.473Z,45.40
2023-02-11T15:34:21.599Z,47.60
2023-02-11T15:36:17.873Z,35.03
2023-02-11T15:38:15.582Z,41.03
2023-02-11T15:40:18.944Z,43.77
2023-02-11T15:42:28.277Z,39.67
2023-02-11T15:44:34.567Z,38.60
2023-02-11T15:46:39.470Z,41.50
2023-02-11T15:48:40.518Z,45.80
2023-02-11T15:50:40.494Z,40.27
2023-02-11T15:52:36.743Z,30.30
2023-02-11T15:54:34.321Z,35.53
2023-02-11T15:56:34.413Z,37.50
2023-02-11T15:58:29.621Z,40.33
2023-02-11T16:00:27.689Z,34.90
2023-02-11T16:02:28.469Z,35.33
2023-02-11T16:04:27.208Z,29.47
2023-02-11T16:06:24.659Z,34.63
2023-02-11T16:08:29.745Z,40.93
2023-02-11T16:10:30.718Z,37.27
2023-02-11T16:12:30.164Z,28.90
2023-02-11T16:14:32.436Z,35.20
2023-02-11T16:16:30.738Z,31.07
2023-02-11T16:18:38.710Z,32.30
2023-02-11T16:20:34.967Z,35.90
2023-02-11T16:22:38.128Z,35.10
2023-02-11T16:24:35.941Z,36.53
2023-02-11T16:26:39.246Z,33.20
2023-02-11T16:28:38.459Z,26.97
2023-02-11T16:30:37.455Z,31.00
2023-02-11T16:32:33.073Z,27.80
2023-02-11T16:34:36.630Z,33.40
2023-02-11T16:36:32.129Z,31.80
2023-02-11T16:38:29.426Z,25.33
2023-02-11T16:40:25.092Z,27.77
2023-02-11T16:42:20.770Z,23.07
2023-02-11T16:44:18.705Z,23.77
2023-02-11T16:48:41.085Z,25.73
2023-02-11T16:50:36.791Z,21.80
2023-02-11T16:52:33.244Z,21.20
2023-02-11T16:54:32.728Z,20.17
2023-02-11T16:56:28.682Z,22.37
2023-02-11T16:58:23.995Z,18.30
2023-02-11T17:00:26.749Z,18.53
2023-02-11T17:02:29.545Z,21.40
2023-02-11T17:04:30.206Z,21.80
2023-02-11T17:06:26.934Z,19.13
2023-02-11T17:08:22.963Z,25.10
2023-02-11T17:10:19.714Z,22.37
2023-02-11T17:12:15.152Z,22.53
2023-02-11T17:14:10.732Z,24.80
2023-02-11T17:16:08.489Z,19.73
2023-02-11T17:18:04.061Z,21.50
2023-02-11T17:19:59.677Z,18.57
2023-02-11T17:21:57.448Z,23.00
2023-02-11T17:23:52.351Z,25.70
2023-02-11T17:25:47.687Z,22.87
2023-02-11T17:27:42.672Z,21.30
2023-02-11T17:29:38.068Z,21.03
2023-02-11T17:31:35.953Z,21.43
2023-02-11T17:33:31.096Z,21.50
2023-02-11T17:35:26.425Z,27.03
2023-02-11T17:37:21.385Z,24.50
2023-02-11T17:39:16.777Z,19.93
2023-02-11T17:41:12.807Z,21.93
2023-02-11T17:43:08.097Z,18.50
2023-02-11T17:45:03.034Z,18.60
2023-02-11T17:47:01.014Z,13.07
2023-02-11T17:48:55.925Z,17.77
2023-02-11T17:50:50.869Z,21.23
2023-02-11T17:52:48.510Z,16.23
2023-02-11T17:54:43.480Z,17.43
2023-02-11T17:56:39.586Z,16.47
2023-02-11T17:58:34.620Z,19.97
2023-02-11T18:00:30.859Z,16.73
2023-02-11T18:02:28.786Z,20.20
2023-02-11T18:04:23.827Z,18.33
2023-02-11T18:06:19.452Z,22.83
2023-02-11T18:08:14.428Z,17.77
2023-02-11T18:10:11.612Z,18.87
2023-02-11T18:12:06.952Z,16.73
2023-02-11T18:14:03.138Z,17.33
2023-02-11T18:15:58.130Z,20.00
2023-02-11T18:17:55.639Z,20.37
2023-02-11T18:19:51.322Z,29.77
2023-02-11T18:21:48.828Z,16.63
2023-02-11T18:23:44.867Z,16.93
2023-02-11T18:25:44.326Z,16.80
2023-02-11T18:27:39.953Z,16.10
2023-02-11T18:29:35.608Z,19.50
2023-02-11T18:31:31.470Z,15.37
2023-02-11T18:33:30.551Z,12.73
2023-02-11T18:35:26.122Z,13.93
2023-02-11T18:37:21.402Z,11.97
2023-02-11T18:39:16.425Z,12.70
2023-02-11T18:41:11.883Z,12.80
2023-02-11T18:43:07.243Z,15.07
2023-02-11T18:45:02.884Z,13.47
2023-02-11T18:46:58.111Z,13.20
2023-02-11T18:48:56.437Z,13.37
2023-02-11T18:50:57.162Z,13.90
2023-02-11T18:52:52.532Z,15.13
2023-02-11T18:54:49.317Z,12.27
2023-02-11T18:56:44.622Z,16.23
2023-02-11T18:58:40.376Z,14.00
2023-02-11T19:00:36.352Z,14.37
2023-02-11T19:02:31.347Z,11.20
2023-02-11T19:04:29.527Z,17.00
2023-02-11T19:06:27.038Z,15.87
2023-02-11T19:08:22.294Z,13.70
2023-02-11T19:10:17.502Z,13.73
2023-02-11T19:12:12.789Z,13.43
2023-02-11T19:14:10.217Z,16.60
2023-02-11T19:16:11.302Z,15.23
2023-02-11T19:18:07.321Z,13.73
2023-02-11T19:20:06.043Z,12.37
2023-02-11T19:22:02.552Z,18.30
2023-02-11T19:23:57.494Z,17.43
2023-02-11T19:25:52.993Z,14.93
2023-02-11T19:27:48.676Z,18.53
2023-02-11T19:29:43.761Z,16.03
2023-02-11T19:31:39.592Z,13.70
2023-02-11T19:33:34.697Z,15.77
2023-02-11T19:35:32.300Z,13.60
2023-02-11T19:37:27.594Z,15.33
2023-02-11T19:39:24.062Z,17.77
2023-02-11T19:41:22.222Z,16.40
2023-02-11T19:43:17.147Z,15.63
2023-02-11T19:45:13.069Z,15.50
2023-02-11T19:47:10.318Z,14.27
2023-02-11T19:49:06.830Z,17.00
2023-02-11T19:51:13.048Z,18.53
2023-02-11T19:53:08.552Z,17.90
2023-02-11T19:55:03.837Z,14.37
2023-02-11T19:57:00.303Z,12.57
2023-02-11T19:58:55.165Z,12.90
2023-02-11T20:00:50.168Z,13.00
2023-02-11T20:02:47.142Z,12.40
2023-02-11T20:04:42.336Z,14.03
2023-02-11T20:06:40.223Z,20.53
2023-02-11T20:08:35.820Z,15.70
2023-02-11T20:10:30.889Z,14.80
2023-02-11T20:12:26.155Z,16.17
2023-02-11T20:14:21.158Z,18.30
2023-02-11T20:16:19.481Z,17.07
2023-02-11T20:18:14.860Z,13.57
2023-02-11T20:20:11.015Z,16.00
2023-02-11T20:22:08.578Z,14.17
2023-02-11T20:24:04.101Z,11.90
2023-02-11T20:25:59.037Z,15.87
2023-02-11T20:27:57.345Z,15.53
2023-02-11T20:29:52.792Z,16.67
2023-02-11T20:31:47.920Z,13.90
2023-02-11T20:33:44.444Z,13.27
2023-02-11T20:35:40.333Z,13.00
2023-02-11T20:37:38.779Z,14.13
2023-02-11T20:39:35.464Z,14.37
2023-02-11T20:41:34.365Z,13.87
2023-02-11T20:43:29.914Z,12.60
2023-02-11T20:45:25.122Z,12.73
2023-02-11T20:47:20.755Z,15.60
2023-02-11T20:49:18.896Z,16.43
2023-02-11T20:51:16.419Z,14.03
2023-02-11T20:53:14.325Z,15.93
2023-02-11T20:55:10.295Z,13.87
2023-02-11T20:57:05.633Z,14.17
2023-02-11T20:59:03.832Z,13.43
2023-02-11T21:00:59.242Z,15.03
2023-02-11T21:02:54.595Z,18.17
2023-02-11T21:04:52.961Z,15.47
2023-02-11T21:06:52.829Z,12.10
2023-02-11T21:08:51.111Z,18.03
2023-02-11T21:10:46.482Z,16.83
2023-02-11T21:12:42.118Z,15.40
2023-02-11T21:14:37.303Z,13.93
2023-02-11T21:16:34.994Z,16.13
2023-02-11T21:18:29.946Z,16.23
2023-02-11T21:20:27.400Z,19.20
2023-02-11T21:22:22.681Z,14.97
2023-02-11T21:24:26.010Z,18.07
2023-02-11T21:26:21.595Z,16.73
2023-02-11T21:28:18.964Z,22.30
2023-02-11T21:33:00.390Z,20.33
2023-02-11T21:35:01.267Z,18.53
2023-02-11T21:36:57.848Z,18.73
2023-02-11T21:38:57.886Z,21.03
2023-02-11T21:40:56.194Z,20.53
2023-02-11T21:42:51.796Z,18.77
2023-02-11T21:44:49.068Z,18.50
2023-02-11T21:46:45.702Z,16.33
2023-02-11T21:48:41.512Z,18.77
2023-02-11T21:50:41.392Z,23.57
2023-02-11T21:52:36.685Z,15.60
2023-02-11T21:54:32.266Z,20.20
2023-02-11T21:56:35.376Z,18.60
2023-02-11T21:58:30.430Z,20.43
2023-02-11T22:00:26.119Z,17.73
2023-02-11T22:02:21.153Z,19.07
2023-02-11T22:04:19.250Z,20.47
2023-02-11T22:06:16.915Z,20.63
2023-02-11T22:08:14.678Z,24.10
2023-02-11T22:10:11.123Z,20.53
2023-02-11T22:12:10.583Z,18.90
2023-02-11T22:14:05.940Z,20.83
2023-02-11T22:16:02.848Z,19.60
2023-02-11T22:17:57.854Z,18.57
2023-02-11T22:19:53.238Z,20.63
2023-02-11T22:21:48.171Z,20.43
2023-02-11T22:23:47.869Z,19.93
2023-02-11T22:25:57.706Z,18.57
2023-02-11T22:27:55.807Z,22.07
2023-02-11T22:29:53.054Z,26.43
2023-02-11T22:31:48.384Z,26.73
2023-02-11T22:33:45.922Z,19.17
2023-02-11T22:35:40.816Z,17.57
2023-02-11T22:37:36.116Z,19.07
2023-02-11T22:39:34.189Z,19.57
2023-02-11T22:41:30.370Z,17.33
2023-02-11T22:43:28.334Z,19.60
2023-02-11T22:45:23.407Z,21.63
2023-02-11T22:47:18.690Z,22.20
2023-02-11T22:49:19.129Z,23.57
2023-02-11T22:51:19.421Z,22.73
2023-02-11T22:53:22.432Z,17.43
2023-02-11T22:55:18.529Z,20.10
2023-02-11T22:57:15.066Z,21.07
2023-02-11T22:59:15.230Z,22.90
2023-02-11T23:01:10.518Z,24.80
2023-02-11T23:03:15.881Z,19.13
2023-02-11T23:05:11.759Z,22.73
2023-02-11T23:07:09.759Z,30.33
2023-02-11T23:09:08.622Z,27.27
2023-02-11T23:11:08.099Z,24.83
2023-02-11T23:13:03.580Z,24.10
2023-02-11T23:15:05.230Z,23.27
2023-02-11T23:17:02.119Z,24.30
2023-02-11T23:18:58.348Z,22.27
2023-02-11T23:20:56.468Z,21.37
2023-02-11T23:22:54.884Z,26.67
2023-02-11T23:24:50.647Z,21.87
2023-02-11T23:26:49.172Z,22.70
2023-02-11T23:28:48.281Z,22.13
2023-02-11T23:30:47.775Z,24.10
2023-02-11T23:32:45.525Z,26.93
2023-02-11T23:34:41.105Z,19.17
2023-02-11T23:36:36.411Z,20.97
2023-02-11T23:38:31.716Z,23.50
2023-02-11T23:40:26.977Z,23.90
2023-02-11T23:42:23.940Z,21.90
2023-02-11T23:44:21.094Z,22.50
2023-02-11T23:46:19.709Z,23.13
2023-02-11T23:48:14.748Z,26.67
2023-02-11T23:50:13.603Z,18.80
2023-02-11T23:52:08.953Z,20.93
2023-02-11T23:54:06.652Z,25.70
2023-02-11T23:55:59.320Z,26.73
2023-02-11T23:57:54.201Z,23.03
2023-02-11T23:59:54.545Z,22.13
